createdAt,value
2023-03-12T00:00:10.294Z,2.74
2023-03-12T00:01:10.320Z,2.74
2023-03-12T00:02:10.295Z,2.74
2023-03-12T00:03:10.165Z,2.74
2023-03-12T00:04:09.706Z,2.74
2023-03-12T00:05:09.654Z,2.75
2023-03-12T00:06:11.113Z,2.75
2023-03-12T00:07:09.501Z,2.77
2023-03-12T00:08:11.561Z,2.77
2023-03-12T00:09:10.332Z,2.78
2023-03-12T00:10:09.705Z,2.78
2023-03-12T00:11:09.434Z,2.79
2023-03-12T00:12:10.144Z,2.78
2023-03-12T00:13:10.074Z,2.80
2023-03-12T00:14:11.873Z,2.80
2023-03-12T00:15:10.578Z,2.80
2023-03-12T00:16:12.003Z,2.80
2023-03-12T00:17:10.056Z,2.79
2023-03-12T00:18:09.458Z,2.80
2023-03-12T00:19:09.336Z,2.79
2023-03-12T00:20:09.459Z,2.78
2023-03-12T00:21:10.017Z,2.78
2023-03-12T00:22:09.462Z,2.77
2023-03-12T00:23:09.985Z,2.77
2023-03-12T00:24:09.979Z,2.77
2023-03-12T00:25:09.537Z,2.77
2023-03-12T00:26:09.305Z,2.78
2023-03-12T00:27:10.003Z,2.76
2023-03-12T00:28:09.966Z,2.76
2023-03-12T00:29:09.917Z,2.75
2023-03-12T00:30:09.905Z,2.77
2023-03-12T00:31:09.330Z,2.75
2023-03-12T00:32:09.231Z,2.74
2023-03-12T00:33:09.462Z,2.73
2023-03-12T00:34:09.377Z,2.71
2023-03-12T00:35:12.636Z,2.69
2023-03-12T00:36:09.336Z,2.66
2023-03-12T00:37:09.893Z,2.64
2023-03-12T00:38:09.792Z,2.61
2023-03-12T00:39:09.290Z,2.60
2023-03-12T00:40:09.922Z,2.58
2023-03-12T00:41:09.784Z,2.57
2023-03-12T00:42:09.227Z,2.57
2023-03-12T00:43:09.130Z,2.56
2023-03-12T00:44:09.251Z,2.56
2023-03-12T00:45:09.743Z,2.56
2023-03-12T00:46:09.220Z,2.55
2023-03-12T00:47:09.341Z,2.56
2023-03-12T00:48:09.359Z,2.56
2023-03-12T00:49:09.164Z,2.55
2023-03-12T00:50:10.006Z,2.55
2023-03-12T00:51:09.462Z,2.55
2023-03-12T00:52:09.045Z,2.54
2023-03-12T00:53:09.001Z,2.53
2023-03-12T00:54:09.655Z,2.52
2023-03-12T00:55:09.636Z,2.50
2023-03-12T00:56:08.992Z,2.51
2023-03-12T00:57:08.915Z,2.49
2023-03-12T00:58:09.595Z,2.47
2023-03-12T00:59:08.944Z,2.46
2023-03-12T01:00:09.592Z,2.44
2023-03-12T01:01:09.621Z,2.42
2023-03-12T01:02:08.892Z,2.41
2023-03-12T01:03:09.547Z,2.38
2023-03-12T01:04:08.927Z,2.36
2023-03-12T01:05:09.538Z,2.33
2023-03-12T01:06:08.837Z,2.30
2023-03-12T01:07:08.851Z,2.27
2023-03-12T01:08:09.520Z,2.25
2023-03-12T01:09:08.821Z,2.22
2023-03-12T01:10:08.806Z,2.19
2023-03-12T01:11:09.479Z,2.18
2023-03-12T01:12:09.472Z,2.15
2023-03-12T01:13:09.441Z,2.14
2023-03-12T01:14:09.470Z,2.12
2023-03-12T01:15:08.769Z,2.10
2023-03-12T01:16:09.463Z,2.10
2023-03-12T01:17:09.422Z,2.09
2023-03-12T01:18:09.429Z,2.07
2023-03-12T01:19:09.392Z,2.07
2023-03-12T01:20:09.433Z,2.06
2023-03-12T01:21:09.374Z,2.06
2023-03-12T01:22:08.682Z,2.06
2023-03-12T01:23:09.340Z,2.05
2023-03-12T01:24:09.343Z,2.05
2023-03-12T01:25:09.339Z,2.06
2023-03-12T01:26:09.332Z,2.06
2023-03-12T01:27:09.323Z,2.07
2023-03-12T01:28:09.956Z,2.06
2023-03-12T01:29:09.295Z,2.07
2023-03-12T01:30:09.300Z,2.08
2023-03-12T01:31:09.303Z,2.09
2023-03-12T01:32:09.270Z,2.10
2023-03-12T01:33:08.599Z,2.13
2023-03-12T01:34:08.568Z,2.15
2023-03-12T01:35:09.286Z,2.15
2023-03-12T01:36:09.226Z,2.17
2023-03-12T01:37:09.206Z,2.18
2023-03-12T01:38:09.174Z,2.19
2023-03-12T01:39:08.564Z,2.21
2023-03-12T01:40:08.498Z,2.22
2023-03-12T01:41:09.202Z,2.23
2023-03-12T01:42:08.475Z,2.24
2023-03-12T01:43:09.121Z,2.25
2023-03-12T01:44:09.128Z,2.26
2023-03-12T01:45:08.433Z,2.27
2023-03-12T01:46:08.442Z,2.28
2023-03-12T01:47:09.101Z,2.28
2023-03-12T01:48:09.075Z,2.30
2023-03-12T01:49:08.449Z,2.32
2023-03-12T01:50:08.381Z,2.31
2023-03-12T01:51:08.372Z,2.32
2023-03-12T01:52:09.048Z,2.33
2023-03-12T01:53:08.389Z,2.32
2023-03-12T01:54:09.022Z,2.34
2023-03-12T01:55:08.340Z,2.36
2023-03-12T01:56:09.011Z,2.35
2023-03-12T01:57:08.991Z,2.36
2023-03-12T01:58:08.984Z,2.35
2023-03-12T01:59:08.337Z,2.35
2023-03-12T02:00:08.961Z,2.35
2023-03-12T02:01:09.007Z,2.35
2023-03-12T02:02:08.941Z,2.36
2023-03-12T02:03:08.256Z,2.36
2023-03-12T02:04:08.332Z,2.35
2023-03-12T02:05:08.929Z,2.36
2023-03-12T02:06:08.906Z,2.36
2023-03-12T02:07:08.214Z,2.36
2023-03-12T02:08:08.882Z,2.36
2023-03-12T02:09:08.207Z,2.35
2023-03-12T02:10:08.868Z,2.36
2023-03-12T02:11:08.860Z,2.36
2023-03-12T02:12:08.836Z,2.37
2023-03-12T02:13:08.828Z,2.37
2023-03-12T02:14:08.793Z,2.37
2023-03-12T02:15:08.132Z,2.38
2023-03-12T02:16:08.825Z,2.38
2023-03-12T02:17:08.814Z,2.38
2023-03-12T02:18:08.776Z,2.39
2023-03-12T02:19:08.744Z,2.40
2023-03-12T02:20:08.755Z,2.41
2023-03-12T02:21:08.074Z,2.41
2023-03-12T02:22:08.741Z,2.41
2023-03-12T02:23:08.734Z,2.42
2023-03-12T02:24:08.047Z,2.43
2023-03-12T02:25:08.068Z,2.43
2023-03-12T02:26:08.066Z,2.43
2023-03-12T02:27:08.678Z,2.43
2023-03-12T02:28:08.694Z,2.42
2023-03-12T02:29:08.647Z,2.42
2023-03-12T02:30:08.679Z,2.43
2023-03-12T02:31:08.646Z,2.42
2023-03-12T02:32:08.062Z,2.43
2023-03-12T02:33:08.626Z,2.42
2023-03-12T02:34:08.627Z,2.41
2023-03-12T02:35:08.603Z,2.42
2023-03-12T02:36:08.027Z,2.42
2023-03-12T02:37:07.889Z,2.41
2023-03-12T02:38:07.880Z,2.40
2023-03-12T02:39:07.880Z,2.40
2023-03-12T02:40:07.878Z,2.38
2023-03-12T02:41:08.536Z,2.39
2023-03-12T02:42:08.532Z,2.37
2023-03-12T02:43:08.518Z,2.37
2023-03-12T02:44:08.482Z,2.36
2023-03-12T02:45:08.497Z,2.35
2023-03-12T02:46:08.201Z,2.34
2023-03-12T02:47:08.478Z,2.34
2023-03-12T02:48:08.459Z,2.34
2023-03-12T02:49:08.430Z,2.33
2023-03-12T02:50:08.479Z,2.31
2023-03-12T02:51:07.812Z,2.31
2023-03-12T02:52:07.769Z,2.30
2023-03-12T02:53:08.445Z,2.30
2023-03-12T02:54:07.804Z,2.29
2023-03-12T02:55:08.403Z,2.28
2023-03-12T02:56:08.384Z,2.28
2023-03-12T02:57:07.751Z,2.27
2023-03-12T02:58:08.368Z,2.28
2023-03-12T02:59:07.730Z,2.29
2023-03-12T03:00:08.333Z,2.28
2023-03-12T03:01:07.679Z,2.28
2023-03-12T03:02:08.350Z,2.29
2023-03-12T03:03:08.313Z,2.29
2023-03-12T03:04:07.683Z,2.29
2023-03-12T03:05:09.550Z,2.29
2023-03-12T03:06:09.460Z,2.30
2023-03-12T03:07:08.282Z,2.30
2023-03-12T03:08:07.575Z,2.31
2023-03-12T03:09:08.252Z,2.32
2023-03-12T03:10:08.215Z,2.34
2023-03-12T03:11:08.217Z,2.35
2023-03-12T03:12:08.202Z,2.36
2023-03-12T03:13:08.212Z,2.36
2023-03-12T03:14:07.515Z,2.37
2023-03-12T03:15:07.539Z,2.38
2023-03-12T03:16:07.538Z,2.39
2023-03-12T03:17:08.162Z,2.40
2023-03-12T03:18:07.503Z,2.41
2023-03-12T03:19:08.146Z,2.41
2023-03-12T03:20:08.114Z,2.42
2023-03-12T03:21:07.455Z,2.41
2023-03-12T03:22:08.133Z,2.41
2023-03-12T03:23:08.109Z,2.43
2023-03-12T03:24:08.338Z,2.43
2023-03-12T03:25:09.346Z,2.43
2023-03-12T03:26:08.305Z,2.44
2023-03-12T03:27:08.297Z,2.44
2023-03-12T03:28:08.378Z,2.44
2023-03-12T03:29:08.038Z,2.43
2023-03-12T03:30:08.013Z,2.43
2023-03-12T03:31:08.159Z,2.42
2023-03-12T03:32:07.346Z,2.40
2023-03-12T03:33:08.019Z,2.40
2023-03-12T03:34:07.996Z,2.39
2023-03-12T03:35:08.240Z,2.38
2023-03-12T03:36:07.298Z,2.38
2023-03-12T03:37:07.987Z,2.37
2023-03-12T03:38:08.230Z,2.37
2023-03-12T03:39:08.228Z,2.37
2023-03-12T03:40:07.264Z,2.37
2023-03-12T03:41:07.956Z,2.37
2023-03-12T03:42:09.154Z,2.37
2023-03-12T03:43:07.204Z,2.38
2023-03-12T03:44:07.899Z,2.39
2023-03-12T03:45:07.846Z,2.39
2023-03-12T03:46:07.892Z,2.41
2023-03-12T03:47:07.844Z,2.41
2023-03-12T03:48:07.841Z,2.42
2023-03-12T03:49:07.135Z,2.43
2023-03-12T03:50:07.797Z,2.42
2023-03-12T03:51:07.816Z,2.43
2023-03-12T03:52:07.789Z,2.43
2023-03-12T03:53:07.782Z,2.44
2023-03-12T03:54:07.786Z,2.46
2023-03-12T03:55:07.745Z,2.46
2023-03-12T03:56:07.055Z,2.47
2023-03-12T03:57:07.751Z,2.48
2023-03-12T03:58:07.729Z,2.47
2023-03-12T03:59:08.971Z,2.48
2023-03-12T04:00:07.695Z,2.49
2023-03-12T04:01:07.016Z,2.51
2023-03-12T04:02:07.019Z,2.52
2023-03-12T04:03:07.009Z,2.51
2023-03-12T04:04:07.684Z,2.52
2023-03-12T04:05:07.640Z,2.52
2023-03-12T04:06:07.646Z,2.53
2023-03-12T04:07:06.947Z,2.54
2023-03-12T04:08:06.966Z,2.55
2023-03-12T04:09:06.929Z,2.57
2023-03-12T04:10:06.937Z,2.58
2023-03-12T04:11:07.600Z,2.58
2023-03-12T04:12:07.596Z,2.58
2023-03-12T04:13:07.592Z,2.59
2023-03-12T04:14:07.556Z,2.60
2023-03-12T04:15:06.890Z,2.61
2023-03-12T04:16:07.550Z,2.60
2023-03-12T04:17:06.851Z,2.60
2023-03-12T04:18:06.939Z,2.61
2023-03-12T04:19:06.827Z,2.62
2023-03-12T04:20:07.480Z,2.63
2023-03-12T04:21:07.479Z,2.64
2023-03-12T04:22:07.491Z,2.65
2023-03-12T04:23:07.458Z,2.67
2023-03-12T04:24:07.459Z,2.67
2023-03-12T04:25:06.774Z,2.69
2023-03-12T04:26:07.432Z,2.70
2023-03-12T04:27:06.729Z,2.71
2023-03-12T04:28:06.728Z,2.71
2023-03-12T04:29:07.398Z,2.72
2023-03-12T04:30:07.370Z,2.73
2023-03-12T04:31:06.730Z,2.74
2023-03-12T04:32:07.367Z,2.75
2023-03-12T04:33:07.360Z,2.76
2023-03-12T04:34:07.355Z,2.76
2023-03-12T04:35:07.614Z,2.77
2023-03-12T04:36:07.409Z,2.78
2023-03-12T04:37:06.662Z,2.78
2023-03-12T04:38:07.314Z,2.78
2023-03-12T04:39:06.692Z,2.80
2023-03-12T04:40:06.656Z,2.80
2023-03-12T04:41:06.584Z,2.80
2023-03-12T04:42:07.281Z,2.80
2023-03-12T04:43:06.588Z,2.81
2023-03-12T04:44:07.246Z,2.80
2023-03-12T04:45:07.219Z,2.81
2023-03-12T04:46:07.231Z,2.80
2023-03-12T04:47:07.234Z,2.80
2023-03-12T04:48:07.209Z,2.80
2023-03-12T04:49:07.235Z,2.79
2023-03-12T04:50:06.697Z,2.79
2023-03-12T04:51:06.488Z,2.78
2023-03-12T04:52:06.540Z,2.78
2023-03-12T04:53:07.212Z,2.78
2023-03-12T04:54:06.458Z,2.77
2023-03-12T04:55:06.507Z,2.76
2023-03-12T04:56:07.149Z,2.75
2023-03-12T04:57:06.486Z,2.76
2023-03-12T04:58:07.113Z,2.76
2023-03-12T04:59:06.763Z,2.75
2023-03-12T05:00:08.348Z,2.75
2023-03-12T05:01:06.387Z,2.74
2023-03-12T05:02:07.078Z,2.75
2023-03-12T05:03:07.350Z,2.74
2023-03-12T05:04:07.138Z,2.75
2023-03-12T05:05:08.322Z,2.76
2023-03-12T05:06:07.280Z,2.75
2023-03-12T05:07:06.343Z,2.75
2023-03-12T05:08:07.012Z,2.74
2023-03-12T05:09:07.001Z,2.75
2023-03-12T05:10:06.322Z,2.75
2023-03-12T05:11:06.980Z,2.74
2023-03-12T05:12:06.290Z,2.75
2023-03-12T05:13:07.237Z,2.75
2023-03-12T05:14:06.292Z,2.74
2023-03-12T05:15:06.934Z,2.75
2023-03-12T05:16:06.946Z,2.75
2023-03-12T05:17:06.259Z,2.75
2023-03-12T05:18:06.236Z,2.75
2023-03-12T05:19:07.145Z,2.76
2023-03-12T05:20:06.221Z,2.77
2023-03-12T05:21:06.872Z,2.79
2023-03-12T05:22:06.232Z,2.78
2023-03-12T05:23:06.867Z,2.78
2023-03-12T05:24:06.854Z,2.79
2023-03-12T05:25:06.818Z,2.80
2023-03-12T05:26:06.216Z,2.80
2023-03-12T05:27:06.846Z,2.82
2023-03-12T05:28:06.116Z,2.82
2023-03-12T05:29:06.789Z,2.82
2023-03-12T05:30:06.789Z,2.83
2023-03-12T05:31:06.103Z,2.83
2023-03-12T05:32:06.083Z,2.83
2023-03-12T05:33:06.771Z,2.84
2023-03-12T05:34:06.753Z,2.84
2023-03-12T05:35:06.070Z,2.86
2023-03-12T05:36:06.722Z,2.87
2023-03-12T05:37:06.033Z,2.87
2023-03-12T05:38:06.054Z,2.88
2023-03-12T05:39:06.058Z,2.88
2023-03-12T05:40:06.036Z,2.90
2023-03-12T05:41:07.952Z,2.91
2023-03-12T05:42:06.929Z,2.92
2023-03-12T05:43:06.674Z,2.92
2023-03-12T05:44:06.638Z,2.94
2023-03-12T05:45:06.639Z,2.95
2023-03-12T05:46:06.618Z,2.96
2023-03-12T05:47:06.606Z,2.98
2023-03-12T05:48:05.925Z,2.99
2023-03-12T05:49:06.588Z,3.01
2023-03-12T05:50:05.916Z,3.02
2023-03-12T05:51:06.826Z,3.02
2023-03-12T05:52:06.568Z,3.04
2023-03-12T05:53:06.546Z,3.06
2023-03-12T05:54:06.534Z,3.07
2023-03-12T05:55:05.854Z,3.09
2023-03-12T05:56:06.508Z,3.10
2023-03-12T05:57:05.806Z,3.11
2023-03-12T05:58:05.822Z,3.13
2023-03-12T05:59:06.482Z,3.15
2023-03-12T06:00:05.778Z,3.15
2023-03-12T06:01:05.784Z,3.16
2023-03-12T06:02:06.462Z,3.18
2023-03-12T06:03:05.797Z,3.19
2023-03-12T06:04:06.425Z,3.20
2023-03-12T06:05:05.733Z,3.23
2023-03-12T06:06:05.740Z,3.25
2023-03-12T06:07:07.663Z,3.27
2023-03-12T06:08:05.701Z,3.29
2023-03-12T06:09:05.695Z,3.31
2023-03-12T06:10:06.373Z,3.34
2023-03-12T06:11:06.334Z,3.36
2023-03-12T06:12:06.339Z,3.39
2023-03-12T06:13:06.346Z,3.41
2023-03-12T06:14:06.321Z,3.43
2023-03-12T06:15:06.311Z,3.45
2023-03-12T06:16:06.283Z,3.47
2023-03-12T06:17:06.295Z,3.49
2023-03-12T06:18:06.280Z,3.51
2023-03-12T06:19:06.262Z,3.52
2023-03-12T06:20:06.252Z,3.54
2023-03-12T06:21:06.233Z,3.56
2023-03-12T06:22:06.232Z,3.57
2023-03-12T06:23:05.521Z,3.60
2023-03-12T06:24:05.522Z,3.61
2023-03-12T06:25:06.204Z,3.63
2023-03-12T06:26:05.516Z,3.65
2023-03-12T06:27:06.165Z,3.67
2023-03-12T06:28:06.174Z,3.69
2023-03-12T06:29:06.165Z,3.72
2023-03-12T06:30:06.165Z,3.74
2023-03-12T06:31:05.463Z,3.76
2023-03-12T06:32:06.108Z,3.78
2023-03-12T06:33:06.114Z,3.80
2023-03-12T06:34:06.108Z,3.82
2023-03-12T06:35:06.104Z,3.85
2023-03-12T06:36:06.085Z,3.87
2023-03-12T06:37:05.406Z,3.90
2023-03-12T06:38:06.062Z,3.92
2023-03-12T06:39:05.393Z,3.96
2023-03-12T06:40:06.035Z,3.99
2023-03-12T06:41:06.032Z,4.03
2023-03-12T06:42:05.345Z,4.08
2023-03-12T06:43:06.008Z,4.13
2023-03-12T06:44:06.029Z,4.18
2023-03-12T06:45:06.020Z,4.21
2023-03-12T06:46:06.004Z,4.25
2023-03-12T06:47:05.945Z,4.27
2023-03-12T06:48:05.275Z,4.29
2023-03-12T06:49:05.264Z,4.30
2023-03-12T06:50:05.939Z,4.31
2023-03-12T06:51:05.926Z,4.32
2023-03-12T06:52:05.896Z,4.32
2023-03-12T06:53:05.904Z,4.32
2023-03-12T06:54:05.891Z,4.32
2023-03-12T06:55:05.876Z,4.32
2023-03-12T06:56:05.875Z,4.32
2023-03-12T06:57:05.836Z,4.31
2023-03-12T06:58:05.846Z,4.31
2023-03-12T06:59:05.843Z,4.31
2023-03-12T07:00:05.838Z,4.29
2023-03-12T07:01:05.157Z,4.29
2023-03-12T07:02:05.202Z,4.29
2023-03-12T07:03:05.798Z,4.30
2023-03-12T07:04:07.040Z,4.32
2023-03-12T07:05:05.111Z,4.33
2023-03-12T07:06:05.085Z,4.35
2023-03-12T07:07:05.100Z,4.37
2023-03-12T07:08:05.757Z,4.38
2023-03-12T07:09:05.742Z,4.40
2023-03-12T07:10:05.736Z,4.41
2023-03-12T07:11:05.046Z,4.43
2023-03-12T07:12:05.694Z,4.45
2023-03-12T07:13:06.955Z,4.47
2023-03-12T07:14:05.022Z,4.48
2023-03-12T07:15:05.965Z,4.49
2023-03-12T07:16:05.943Z,4.52
2023-03-12T07:17:05.917Z,4.54
2023-03-12T07:18:05.647Z,4.57
2023-03-12T07:19:04.960Z,4.58
2023-03-12T07:20:05.631Z,4.61
2023-03-12T07:21:05.624Z,4.63
2023-03-12T07:22:05.587Z,4.66
2023-03-12T07:23:05.602Z,4.69
2023-03-12T07:24:05.597Z,4.73
2023-03-12T07:25:05.837Z,4.78
2023-03-12T07:26:04.873Z,4.81
2023-03-12T07:27:05.539Z,4.86
2023-03-12T07:28:05.549Z,4.89
2023-03-12T07:29:04.852Z,4.94
2023-03-12T07:30:04.884Z,5.01
2023-03-12T07:31:05.571Z,5.07
2023-03-12T07:32:05.489Z,5.13
2023-03-12T07:33:05.609Z,5.21
2023-03-12T07:34:05.862Z,5.25
2023-03-12T07:35:04.799Z,5.30
2023-03-12T07:36:05.608Z,5.36
2023-03-12T07:37:05.429Z,5.38
2023-03-12T07:38:05.470Z,5.41
2023-03-12T07:39:04.745Z,5.43
2023-03-12T07:40:04.773Z,5.43
2023-03-12T07:41:05.476Z,5.43
2023-03-12T07:42:04.745Z,5.43
2023-03-12T07:43:05.379Z,5.43
2023-03-12T07:44:05.427Z,5.44
2023-03-12T07:45:05.503Z,5.44
2023-03-12T07:46:05.351Z,5.45
2023-03-12T07:47:22.253Z,5.48
2023-03-12T07:48:05.670Z,5.49
2023-03-12T07:49:05.307Z,5.53
2023-03-12T07:50:05.338Z,5.57
2023-03-12T07:51:05.287Z,5.59
2023-03-12T07:52:05.308Z,5.62
2023-03-12T07:53:04.660Z,5.65
2023-03-12T07:54:05.268Z,5.68
2023-03-12T07:55:05.301Z,5.74
2023-03-12T07:56:05.352Z,5.81
2023-03-12T07:57:05.346Z,5.87
2023-03-12T07:58:05.339Z,5.92
2023-03-12T07:59:05.386Z,5.98
2023-03-12T08:00:05.216Z,6.04
2023-03-12T08:01:05.230Z,6.07
2023-03-12T08:02:05.216Z,6.09
2023-03-12T08:03:05.364Z,6.12
2023-03-12T08:04:05.294Z,6.13
2023-03-12T08:05:04.488Z,6.16
2023-03-12T08:06:05.234Z,6.18
2023-03-12T08:07:07.290Z,6.17
2023-03-12T08:08:04.478Z,6.18
2023-03-12T08:09:05.098Z,6.19
2023-03-12T08:10:05.202Z,6.20
2023-03-12T08:11:05.084Z,6.21
2023-03-12T08:12:05.061Z,6.20
2023-03-12T08:13:04.413Z,6.20
2023-03-12T08:14:05.183Z,6.19
2023-03-12T08:15:05.039Z,6.17
2023-03-12T08:16:05.782Z,6.16
2023-03-12T08:17:04.349Z,6.15
2023-03-12T08:18:05.010Z,6.13
2023-03-12T08:19:05.018Z,6.13
2023-03-12T08:20:04.988Z,6.13
2023-03-12T08:21:04.976Z,6.11
2023-03-12T08:22:04.948Z,6.10
2023-03-12T08:23:04.291Z,6.11
2023-03-12T08:24:04.950Z,6.10
2023-03-12T08:25:04.959Z,6.05
2023-03-12T08:26:04.922Z,6.00
2023-03-12T08:27:04.258Z,5.98
2023-03-12T08:28:04.914Z,5.97
2023-03-12T08:29:04.895Z,5.95
2023-03-12T08:30:04.880Z,5.94
2023-03-12T08:31:04.878Z,5.90
2023-03-12T08:32:05.725Z,5.84
2023-03-12T08:33:04.934Z,5.78
2023-03-12T08:34:04.847Z,5.73
2023-03-12T08:35:04.151Z,5.69
2023-03-12T08:36:04.188Z,5.66
2023-03-12T08:37:04.793Z,5.64
2023-03-12T08:38:04.810Z,5.62
2023-03-12T08:39:04.801Z,5.59
2023-03-12T08:40:04.092Z,5.56
2023-03-12T08:41:04.762Z,5.53
2023-03-12T08:42:04.102Z,5.51
2023-03-12T08:43:04.749Z,5.51
2023-03-12T08:44:04.033Z,5.49
2023-03-12T08:45:04.733Z,5.48
2023-03-12T08:46:04.059Z,5.47
2023-03-12T08:47:04.027Z,5.47
2023-03-12T08:48:04.703Z,5.46
2023-03-12T08:49:04.684Z,5.44
2023-03-12T08:50:04.666Z,5.42
2023-03-12T08:51:04.660Z,5.39
2023-03-12T08:52:04.644Z,5.37
2023-03-12T08:53:04.659Z,5.33
2023-03-12T08:54:04.634Z,5.31
2023-03-12T08:55:04.621Z,5.29
2023-03-12T08:56:04.607Z,5.29
2023-03-12T08:57:04.587Z,5.29
2023-03-12T08:58:03.908Z,5.30
2023-03-12T08:59:04.582Z,5.32
2023-03-12T09:00:03.889Z,5.34
2023-03-12T09:01:04.549Z,5.35
2023-03-12T09:02:04.534Z,5.36
2023-03-12T09:03:03.855Z,5.36
2023-03-12T09:04:04.621Z,5.35
2023-03-12T09:05:04.510Z,5.34
2023-03-12T09:06:04.500Z,5.33
2023-03-12T09:07:04.473Z,5.32
2023-03-12T09:08:03.781Z,5.33
2023-03-12T09:09:03.791Z,5.31
2023-03-12T09:10:04.464Z,5.32
2023-03-12T09:11:04.447Z,5.31
2023-03-12T09:12:03.761Z,5.32
2023-03-12T09:13:04.423Z,5.33
2023-03-12T09:15:05.493Z,5.38
2023-03-12T09:16:03.712Z,5.39
2023-03-12T09:17:04.374Z,5.39
2023-03-12T09:18:04.382Z,5.38
2023-03-12T09:19:03.662Z,5.39
2023-03-12T09:20:04.352Z,5.39
2023-03-12T09:21:03.669Z,5.40
2023-03-12T09:22:04.310Z,5.42
2023-03-12T09:23:03.623Z,5.45
2023-03-12T09:24:04.300Z,5.47
2023-03-12T09:25:04.300Z,5.50
2023-03-12T09:26:03.593Z,5.52
2023-03-12T09:27:03.598Z,5.54
2023-03-12T09:28:03.592Z,5.56
2023-03-12T09:29:04.252Z,5.58
2023-03-12T09:30:04.239Z,5.60
2023-03-12T09:31:04.254Z,5.64
2023-03-12T09:32:05.859Z,5.68
2023-03-12T09:33:03.560Z,5.70
2023-03-12T09:34:04.195Z,5.73
2023-03-12T09:35:04.187Z,5.76
2023-03-12T09:36:04.211Z,5.79
2023-03-12T09:37:04.147Z,5.82
2023-03-12T09:38:03.469Z,5.84
2023-03-12T09:39:04.152Z,5.87
2023-03-12T09:40:04.138Z,5.94
2023-03-12T09:41:04.135Z,6.01
2023-03-12T09:42:04.092Z,6.05
2023-03-12T09:43:04.098Z,6.07
2023-03-12T09:44:03.401Z,6.09
2023-03-12T09:45:04.088Z,6.10
2023-03-12T09:46:04.090Z,6.11
2023-03-12T09:47:03.394Z,6.11
2023-03-12T09:48:04.043Z,6.14
2023-03-12T09:49:04.037Z,6.17
2023-03-12T09:50:04.028Z,6.19
2023-03-12T09:51:03.339Z,6.19
2023-03-12T09:52:03.985Z,6.21
2023-03-12T09:53:03.314Z,6.22
2023-03-12T09:54:03.989Z,6.22
2023-03-12T09:55:03.991Z,6.21
2023-03-12T09:56:03.970Z,6.19
2023-03-12T09:57:03.284Z,6.19
2023-03-12T09:58:03.272Z,6.18
2023-03-12T09:59:03.930Z,6.19
2023-03-12T10:00:03.948Z,6.19
2023-03-12T10:01:03.933Z,6.20
2023-03-12T10:02:03.923Z,6.18
2023-03-12T10:03:03.262Z,6.19
2023-03-12T10:04:03.885Z,6.19
2023-03-12T10:05:03.979Z,6.21
2023-03-12T10:06:03.930Z,6.23
2023-03-12T10:07:03.850Z,6.23
2023-03-12T10:08:21.351Z,6.23
2023-03-12T10:09:05.555Z,6.23
2023-03-12T10:10:03.155Z,6.21
2023-03-12T10:11:03.823Z,6.19
2023-03-12T10:12:03.798Z,6.18
2023-03-12T10:13:03.780Z,6.19
2023-03-12T10:14:03.089Z,6.19
2023-03-12T10:15:03.765Z,6.21
2023-03-12T10:16:03.804Z,6.21
2023-03-12T10:17:03.749Z,6.18
2023-03-12T10:18:03.817Z,6.14
2023-03-12T10:19:03.077Z,6.11
2023-03-12T10:20:03.055Z,6.06
2023-03-12T10:21:03.707Z,6.03
2023-03-12T10:22:03.700Z,6.01
2023-03-12T10:23:03.669Z,5.97
2023-03-12T10:24:03.677Z,5.93
2023-03-12T10:25:03.661Z,5.90
2023-03-12T10:26:03.655Z,5.92
2023-03-12T10:27:03.642Z,5.97
2023-03-12T10:28:03.607Z,6.04
2023-03-12T10:29:02.952Z,6.10
2023-03-12T10:30:03.619Z,6.10
2023-03-12T10:31:02.970Z,6.07
2023-03-12T10:32:03.591Z,6.06
2023-03-12T10:33:03.559Z,6.10
2023-03-12T10:34:03.569Z,6.16
2023-03-12T10:35:03.586Z,6.25
2023-03-12T10:36:03.610Z,6.37
2023-03-12T10:37:03.546Z,6.47
2023-03-12T10:38:02.858Z,6.56
2023-03-12T10:39:03.535Z,6.61
2023-03-12T10:40:03.543Z,6.65
2023-03-12T10:41:03.504Z,6.72
2023-03-12T10:42:03.485Z,6.80
2023-03-12T10:43:03.460Z,6.84
2023-03-12T10:44:03.470Z,6.84
2023-03-12T10:45:02.769Z,6.82
2023-03-12T10:46:03.458Z,6.80
2023-03-12T10:47:03.434Z,6.79
2023-03-12T10:48:03.398Z,6.82
2023-03-12T10:49:02.730Z,6.84
2023-03-12T10:50:03.399Z,6.80
2023-03-12T10:51:03.406Z,6.75
2023-03-12T10:52:03.381Z,6.73
2023-03-12T10:53:03.347Z,6.74
2023-03-12T10:54:03.374Z,6.75
2023-03-12T10:55:03.341Z,6.76
2023-03-12T10:56:02.670Z,6.77
2023-03-12T10:57:02.646Z,6.79
2023-03-12T10:58:03.293Z,6.80
2023-03-12T10:59:03.305Z,6.77
2023-03-12T11:00:03.290Z,6.72
2023-03-12T11:01:02.600Z,6.67
2023-03-12T11:02:02.684Z,6.63
2023-03-12T11:03:03.232Z,6.64
2023-03-12T11:04:03.251Z,6.66
2023-03-12T11:05:02.587Z,6.74
2023-03-12T11:06:02.640Z,6.78
2023-03-12T11:07:02.544Z,6.80
2023-03-12T11:08:02.549Z,6.78
2023-03-12T11:09:15.859Z,6.76
2023-03-12T11:10:03.482Z,6.76
2023-03-12T11:11:03.172Z,6.73
2023-03-12T11:12:02.487Z,6.73
2023-03-12T11:13:03.142Z,6.75
2023-03-12T11:14:03.135Z,6.79
2023-03-12T11:15:03.124Z,6.85
2023-03-12T11:16:03.236Z,6.89
2023-03-12T11:17:02.413Z,6.95
2023-03-12T11:18:03.076Z,7.02
2023-03-12T11:19:02.405Z,7.08
2023-03-12T11:20:02.391Z,7.14
2023-03-12T11:21:03.076Z,7.17
2023-03-12T11:22:03.055Z,7.20
2023-03-12T11:23:03.023Z,7.22
2023-03-12T11:24:03.037Z,7.25
2023-03-12T11:25:03.022Z,7.30
2023-03-12T11:26:03.036Z,7.32
2023-03-12T11:27:03.010Z,7.35
2023-03-12T11:28:03.011Z,7.37
2023-03-12T11:29:02.980Z,7.37
2023-03-12T11:30:02.291Z,7.42
2023-03-12T11:31:02.997Z,7.49
2023-03-12T11:32:03.029Z,7.54
2023-03-12T11:33:02.919Z,7.58
2023-03-12T11:34:02.919Z,7.60
2023-03-12T11:35:02.225Z,7.62
2023-03-12T11:36:02.913Z,7.64
2023-03-12T11:37:02.900Z,7.66
2023-03-12T11:38:02.867Z,7.69
2023-03-12T11:39:02.939Z,7.70
2023-03-12T11:40:02.857Z,7.73
2023-03-12T11:41:07.714Z,7.76
2023-03-12T11:42:02.225Z,7.79
2023-03-12T11:43:02.168Z,7.80
2023-03-12T11:44:02.152Z,7.79
2023-03-12T11:45:02.810Z,7.79
2023-03-12T11:46:02.818Z,7.79
2023-03-12T11:47:02.793Z,7.78
2023-03-12T11:48:02.116Z,7.77
2023-03-12T11:49:02.794Z,7.78
2023-03-12T11:50:02.761Z,7.81
2023-03-12T11:51:02.748Z,7.83
2023-03-12T11:52:02.043Z,7.88
2023-03-12T11:53:02.715Z,7.92
2023-03-12T11:54:02.735Z,7.99
2023-03-12T11:55:02.702Z,8.05
2023-03-12T11:56:02.698Z,8.10
2023-03-12T11:57:02.691Z,8.16
2023-03-12T11:58:02.648Z,8.21
2023-03-12T11:59:02.662Z,8.25
2023-03-12T12:00:01.979Z,8.28
2023-03-12T12:01:02.641Z,8.30
2023-03-12T12:02:02.690Z,8.32
2023-03-12T12:03:02.641Z,8.33
2023-03-12T12:04:02.609Z,8.36
2023-03-12T12:05:01.892Z,8.40
2023-03-12T12:06:02.586Z,8.43
2023-03-12T12:07:02.580Z,8.48
2023-03-12T12:08:02.546Z,8.53
2023-03-12T12:09:02.558Z,8.54
2023-03-12T12:10:01.852Z,8.56
2023-03-12T12:11:01.845Z,8.54
2023-03-12T12:12:05.220Z,8.53
2023-03-12T12:13:01.885Z,8.52
2023-03-12T12:14:01.828Z,8.52
2023-03-12T12:15:02.494Z,8.52
2023-03-12T12:16:01.822Z,8.54
2023-03-12T12:17:01.798Z,8.55
2023-03-12T12:18:02.459Z,8.57
2023-03-12T12:19:04.536Z,8.59
2023-03-12T12:20:03.147Z,8.61
2023-03-12T12:21:02.426Z,8.63
2023-03-12T12:22:02.406Z,8.64
2023-03-12T12:23:01.729Z,8.66
2023-03-12T12:24:02.371Z,8.70
2023-03-12T12:25:01.786Z,8.73
2023-03-12T12:26:02.369Z,8.78
2023-03-12T12:27:02.367Z,8.83
2023-03-12T12:28:01.669Z,8.88
2023-03-12T12:29:01.678Z,8.92
2023-03-12T12:30:01.653Z,8.98
2023-03-12T12:31:02.318Z,9.01
2023-03-12T12:32:02.378Z,9.06
2023-03-12T12:33:02.298Z,9.08
2023-03-12T12:34:02.260Z,9.11
2023-03-12T12:35:02.281Z,9.14
2023-03-12T12:36:01.681Z,9.19
2023-03-12T12:37:02.262Z,9.27
2023-03-12T12:38:02.239Z,9.39
2023-03-12T12:39:01.582Z,9.53
2023-03-12T12:40:01.533Z,9.60
2023-03-12T12:41:01.539Z,9.60
2023-03-12T12:42:02.201Z,9.59
2023-03-12T12:43:02.202Z,9.57
2023-03-12T12:44:02.165Z,9.55
2023-03-12T12:45:02.174Z,9.54
2023-03-12T12:46:01.498Z,9.55
2023-03-12T12:47:01.462Z,9.60
2023-03-12T12:48:02.156Z,9.65
2023-03-12T12:49:01.451Z,9.75
2023-03-12T12:50:02.120Z,9.86
2023-03-12T12:51:01.484Z,9.97
2023-03-12T12:52:01.412Z,10.03
2023-03-12T12:53:03.322Z,10.06
2023-03-12T12:54:02.356Z,10.09
2023-03-12T12:55:02.096Z,10.13
2023-03-12T12:56:01.366Z,10.17
2023-03-12T12:57:02.060Z,10.18
2023-03-12T12:58:01.332Z,10.19
2023-03-12T12:59:03.323Z,10.18
2023-03-12T13:00:02.039Z,10.20
2023-03-12T13:01:03.258Z,10.28
2023-03-12T13:02:01.336Z,10.38
2023-03-12T13:03:01.318Z,10.44
2023-03-12T13:04:02.007Z,10.49
2023-03-12T13:05:01.961Z,10.60
2023-03-12T13:06:01.950Z,10.69
2023-03-12T13:07:01.941Z,10.76
2023-03-12T13:08:01.949Z,10.84
2023-03-12T13:09:01.888Z,10.87
2023-03-12T13:10:01.900Z,10.87
2023-03-12T13:11:16.162Z,10.90
2023-03-12T13:12:02.215Z,10.88
2023-03-12T13:13:01.867Z,10.87
2023-03-12T13:14:01.850Z,10.87
2023-03-12T13:15:01.858Z,10.84
2023-03-12T13:16:01.223Z,10.84
2023-03-12T13:17:01.831Z,10.84
2023-03-12T13:18:01.825Z,10.84